Terminal Aerodrome Forecast
Issued by NWS

Home | Current Version | Previous Version | Text Only | Print | Product List | Glossary On
Versions: 1 2 3 4 5 6 7 8 9 10 11 12 13
000
FTUS45 KABQ 190500
TAFAEG
TAF
KAEG 190527Z 1906/2006 18005KT P6SM BKN100
     FM190900 03005KT P6SM SCT025 BKN050
     FM191600 33005KT P6SM BKN080
     FM192100 30010KT P6SM VCSH BKN080
     FM200100 36010KT P6SM BKN100=

USA.gov is the U.S. government's official web portal to all federal, state and local government web resources and services.